Time;durP1;ratioP1;P1;durP2;ratioP2;P2;SDS_P1;SDS_P2;PMS_P1;PMS_P2;Temp;Humidity;BMP_temperature;BMP_pressure;BME280_temperature;BME280_humidity;BME280_pressure;Samples;Min_cycle;Max_cycle;Signal;HPM_P1;HPM_P2
2023/03/16 00:01:15;;;;;;;13.75;8.63;;;103.30;2227.20;;;;;;5010734;28;20026;-57
2023/03/16 00:03:42;;;;;;;12.95;8.32;;;103.20;2227.20;;;;;;5010608;28;20523;-61
2023/03/16 00:06:08;;;;;;;11.25;7.18;;;103.10;2227.20;;;;;;5010587;28;20034;-58
2023/03/16 00:08:34;;;;;;;15.85;9.27;;;103.20;2227.20;;;;;;5010226;28;20121;-58
2023/03/16 00:11:01;;;;;;;13.20;8.23;;;103.20;2227.20;;;;;;5010862;28;20068;-59
2023/03/16 00:13:28;;;;;;;14.70;9.52;;;103.10;2227.20;;;;;;5010490;28;20034;-70
2023/03/16 00:15:58;;;;;;;91.45;48.78;;;103.20;2227.20;;;;;;5010194;28;20080;-64
2023/03/16 00:18:26;;;;;;;13.93;9.40;;;103.20;2227.20;;;;;;5009548;28;20034;-70
2023/03/16 00:21:01;;;;;;;33.10;17.38;;;103.10;2227.20;;;;;;5009657;28;20029;-66
2023/03/16 00:23:28;;;;;;;10.35;7.60;;;103.00;2227.20;;;;;;5009616;28;20122;-68
2023/03/16 00:25:58;;;;;;;13.57;8.25;;;103.00;2227.20;;;;;;5009287;28;20049;-60
2023/03/16 00:28:26;;;;;;;12.80;8.27;;;102.90;2227.20;;;;;;5009261;28;20042;-68
2023/03/16 00:30:57;;;;;;;15.23;9.65;;;103.00;2227.20;;;;;;5009572;28;20036;-69
2023/03/16 00:33:23;;;;;;;11.15;6.78;;;103.30;2227.20;;;;;;5008089;28;20591;-60
2023/03/16 00:35:49;;;;;;;8.93;6.40;;;103.10;2227.20;;;;;;5008778;28;20611;-70
2023/03/16 00:38:19;;;;;;;25.35;17.08;;;103.00;2227.20;;;;;;5009254;28;20380;-70
2023/03/16 00:40:45;;;;;;;11.80;8.02;;;102.90;2227.20;;;;;;4974239;28;20487;-63
2023/03/16 00:43:12;;;;;;;11.25;8.40;;;103.00;2227.20;;;;;;5001188;28;20399;-71
2023/03/16 00:45:38;;;;;;;10.98;8.45;;;103.10;2227.20;;;;;;5009207;28;20034;-67
2023/03/16 00:48:04;;;;;;;11.10;6.82;;;103.00;2227.20;;;;;;5008938;28;20095;-67
2023/03/16 00:50:30;;;;;;;11.43;7.95;;;103.10;2227.20;;;;;;5008603;28;20430;-63
2023/03/16 00:52:55;;;;;;;23.65;13.73;;;103.00;2227.20;;;;;;5009085;28;20038;-70
2023/03/16 00:55:21;;;;;;;10.02;6.38;;;102.90;2227.20;;;;;;5008830;28;20029;-69
2023/03/16 00:57:47;;;;;;;13.73;7.68;;;103.10;2227.20;;;;;;5008607;28;20049;-60
2023/03/16 01:00:15;;;;;;;9.77;7.53;;;103.10;2227.20;;;;;;5008694;28;20109;-61
2023/03/16 01:02:44;;;;;;;11.65;7.18;;;103.10;2227.20;;;;;;5008370;28;20168;-67
2023/03/16 01:05:11;;;;;;;25.45;15.90;;;103.00;2227.20;;;;;;4996153;28;20037;-66
2023/03/16 01:07:39;;;;;;;13.20;7.97;;;103.10;2227.20;;;;;;5008588;28;20077;-68
2023/03/16 01:10:05;;;;;;;13.10;7.63;;;103.20;2227.20;;;;;;5008529;28;20026;-67
2023/03/16 01:12:31;;;;;;;22.35;13.45;;;103.30;2227.20;;;;;;5008634;28;20391;-67
2023/03/16 01:14:57;;;;;;;28.08;16.88;;;103.30;2227.20;;;;;;5008668;28;20125;-70
2023/03/16 01:17:23;;;;;;;31.35;17.65;;;103.20;2227.20;;;;;;5008730;28;20108;-70
2023/03/16 01:19:48;;;;;;;18.77;11.38;;;103.30;2227.20;;;;;;5008857;28;20108;-68
2023/03/16 01:22:14;;;;;;;63.95;37.13;;;103.30;2227.20;;;;;;5008494;28;20037;-69
2023/03/16 01:24:41;;;;;;;48.63;27.90;;;103.30;2227.20;;;;;;5008940;28;20026;-70
2023/03/16 01:27:08;;;;;;;54.30;30.15;;;128.00;2252.80;;;;;;5008700;28;20038;-60
2023/03/16 01:29:33;;;;;;;29.05;17.00;;;128.30;2252.80;;;;;;5008472;28;20030;-61
2023/03/16 01:32:00;;;;;;;13.30;8.48;;;128.30;2252.80;;;;;;5008517;28;20045;-60
2023/03/16 01:34:26;;;;;;;9.77;6.93;;;128.20;2252.80;;;;;;5008223;28;20030;-70
2023/03/16 01:36:52;;;;;;;155.13;83.03;;;128.10;2252.80;;;;;;5008446;28;20052;-71
2023/03/16 01:39:18;;;;;;;19.02;9.05;;;128.10;2252.80;;;;;;5008493;28;20018;-64
2023/03/16 01:41:45;;;;;;;52.67;26.70;;;128.20;2252.80;;;;;;5008340;28;20030;-69
2023/03/16 01:44:23;;;;;;;12.07;7.13;;;128.20;2252.80;;;;;;5008469;28;20026;-71
2023/03/16 01:46:49;;;;;;;12.85;6.70;;;128.20;2252.80;;;;;;5008387;28;20042;-63
2023/03/16 01:49:26;;;;;;;17.15;11.38;;;128.10;2252.80;;;;;;5008061;28;20064;-61
2023/03/16 01:52:01;;;;;;;10.38;7.07;;;128.20;2252.80;;;;;;5008289;28;20022;-60
2023/03/16 01:54:38;;;;;;;23.17;13.88;;;128.30;2252.80;;;;;;5008276;28;20083;-71
2023/03/16 01:57:20;;;;;;;10.75;6.53;;;128.30;2252.80;;;;;;5008013;28;20029;-59
2023/03/16 01:59:49;;;;;;;12.18;7.78;;;128.40;2252.80;;;;;;5007861;28;20030;-72
2023/03/16 02:02:18;;;;;;;10.15;6.30;;;128.50;2252.80;;;;;;5008124;28;20029;-59
2023/03/16 02:04:58;;;;;;;11.70;7.68;;;128.50;2252.80;;;;;;5007880;28;20083;-59
2023/03/16 02:07:27;;;;;;;13.50;9.02;;;128.50;2252.80;;;;;;5008005;28;20125;-66
2023/03/16 02:09:57;;;;;;;19.92;12.15;;;128.80;2252.80;;;;;;5008158;28;20026;-66
2023/03/16 02:12:23;;;;;;;35.15;19.20;;;128.50;2252.80;;;;;;5007925;28;20022;-58
2023/03/16 02:14:50;;;;;;;24.27;14.73;;;128.40;2252.80;;;;;;5009358;28;20117;-64
2023/03/16 02:17:19;;;;;;;12.10;8.25;;;128.60;2252.80;;;;;;5008627;28;20480;-59
2023/03/16 02:19:57;;;;;;;27.30;15.93;;;128.70;2252.80;;;;;;5008789;28;20029;-65
2023/03/16 02:22:23;;;;;;;13.65;9.02;;;128.60;2252.80;;;;;;5009610;28;20033;-60
2023/03/16 02:24:51;;;;;;;13.30;9.15;;;128.70;2252.80;;;;;;5012933;28;20507;-60
2023/03/16 02:27:48;;;;;;;17.75;10.95;;;128.60;2252.80;;;;;;5012316;28;20030;-60
2023/03/16 02:30:16;;;;;;;55.38;29.67;;;128.40;2252.80;;;;;;5012363;28;20546;-60
2023/03/16 02:32:44;;;;;;;12.48;9.23;;;128.60;2252.80;;;;;;5012688;28;20437;-68
2023/03/16 02:35:11;;;;;;;15.20;8.05;;;128.50;2252.80;;;;;;5012263;28;20026;-59
2023/03/16 02:37:38;;;;;;;22.50;12.57;;;128.40;2252.80;;;;;;5012127;28;20034;-69
2023/03/16 02:40:24;;;;;;;15.27;9.18;;;128.40;2252.80;;;;;;5012083;28;20030;-66
2023/03/16 02:43:06;;;;;;;33.28;16.55;;;128.40;2252.80;;;;;;5012661;28;20032;-59
2023/03/16 02:45:43;;;;;;;197.02;91.78;;;128.50;2252.80;;;;;;5011847;28;20022;-70
2023/03/16 02:48:31;;;;;;;148.90;75.07;;;128.50;2252.80;;;;;;5012103;28;20491;-57
2023/03/16 02:50:57;;;;;;;69.95;36.92;;;128.60;2252.80;;;;;;5011775;28;20108;-69
2023/03/16 02:53:22;;;;;;;15.60;10.45;;;128.60;2252.80;;;;;;5011629;28;20125;-64
2023/03/16 02:55:49;;;;;;;24.13;17.75;;;128.50;2252.80;;;;;;4999105;28;20022;-59
2023/03/16 02:58:15;;;;;;;32.15;19.70;;;128.60;2252.80;;;;;;5011826;28;20029;-69
2023/03/16 03:00:42;;;;;;;179.50;84.80;;;128.70;2252.80;;;;;;5011710;28;20084;-66
2023/03/16 03:03:08;;;;;;;40.00;21.95;;;128.80;2252.80;;;;;;5011360;28;20093;-69
2023/03/16 03:05:35;;;;;;;105.57;49.45;;;128.70;2252.80;;;;;;5011489;28;20033;-60
2023/03/16 03:08:01;;;;;;;35.22;19.88;;;128.60;2252.80;;;;;;5011841;28;20077;-70
2023/03/16 03:10:27;;;;;;;57.00;28.35;;;128.60;2252.80;;;;;;5011700;28;20073;-59
2023/03/16 03:12:52;;;;;;;39.03;20.23;;;128.70;2252.80;;;;;;5011428;28;20075;-59
2023/03/16 03:15:18;;;;;;;44.45;21.77;;;128.70;2252.80;;;;;;5011818;28;20030;-65
2023/03/16 03:17:44;;;;;;;121.72;56.05;;;128.80;2252.80;;;;;;5011293;28;20034;-61
2023/03/16 03:20:15;;;;;;;134.13;61.40;;;128.80;2252.80;;;;;;4998413;28;20022;-59
2023/03/16 03:22:43;;;;;;;229.48;107.43;;;128.80;2252.80;;;;;;5011539;28;20043;-60
2023/03/16 03:25:09;;;;;;;66.45;36.13;;;128.80;2252.80;;;;;;5011668;28;20033;-60
2023/03/16 03:27:35;;;;;;;91.72;48.10;;;128.70;2252.80;;;;;;5011176;28;20034;-59
2023/03/16 03:30:01;;;;;;;49.20;23.63;;;128.80;2252.80;;;;;;5011204;28;20350;-67
2023/03/16 03:32:27;;;;;;;73.35;37.38;;;128.70;2252.80;;;;;;5011340;28;20033;-64
2023/03/16 03:34:52;;;;;;;22.55;16.00;;;128.70;2252.80;;;;;;5011029;28;20061;-60
2023/03/16 03:37:18;;;;;;;22.83;14.30;;;128.80;2252.80;;;;;;5011145;28;20444;-60
2023/03/16 03:39:44;;;;;;;17.45;12.02;;;128.80;2252.80;;;;;;5011176;28;20030;-67
2023/03/16 03:42:10;;;;;;;36.95;22.92;;;128.90;2252.80;;;;;;5011210;28;20092;-68
2023/03/16 03:44:36;;;;;;;15.50;11.10;;;128.80;2252.80;;;;;;5011012;28;20029;-60
2023/03/16 03:47:02;;;;;;;23.80;16.92;;;128.80;2252.80;;;;;;5010684;28;20867;-67
2023/03/16 03:49:28;;;;;;;19.08;12.20;;;128.50;2252.80;;;;;;5010822;28;20108;-62
2023/03/16 03:51:55;;;;;;;18.83;12.32;;;128.40;2252.80;;;;;;5011148;28;20064;-60
2023/03/16 03:54:21;;;;;;;18.58;11.63;;;128.10;2252.80;;;;;;5010805;28;20487;-59
2023/03/16 03:56:47;;;;;;;13.27;9.77;;;128.20;2252.80;;;;;;5010590;28;20465;-69
2023/03/16 03:59:12;;;;;;;12.60;9.45;;;128.20;2252.80;;;;;;5011165;28;20041;-62
2023/03/16 04:01:38;;;;;;;17.98;12.55;;;128.20;2252.80;;;;;;5010508;28;20531;-63
2023/03/16 04:04:04;;;;;;;21.08;14.45;;;128.40;2252.80;;;;;;5010254;28;20050;-60
2023/03/16 04:06:30;;;;;;;16.83;11.57;;;128.50;2252.80;;;;;;5010839;28;20030;-60
2023/03/16 04:08:56;;;;;;;16.50;9.68;;;128.40;2252.80;;;;;;5010656;28;20042;-59
2023/03/16 04:11:21;;;;;;;18.77;10.48;;;128.40;2252.80;;;;;;5010434;28;20101;-68
2023/03/16 04:13:49;;;;;;;14.60;9.35;;;128.40;2252.80;;;;;;5010518;28;20044;-62
2023/03/16 04:16:16;;;;;;;13.23;9.68;;;128.40;2252.80;;;;;;5010387;28;20022;-67
2023/03/16 04:18:41;;;;;;;16.92;9.38;;;128.30;2252.80;;;;;;5010728;28;20041;-68
2023/03/16 04:21:17;;;;;;;13.27;10.10;;;128.10;2252.80;;;;;;5010322;28;20041;-68
2023/03/16 04:23:43;;;;;;;14.45;9.00;;;128.10;2252.80;;;;;;5010104;28;20053;-59
2023/03/16 04:26:09;;;;;;;12.23;9.00;;;128.00;2252.80;;;;;;5010282;28;20033;-60
2023/03/16 04:28:34;;;;;;;12.60;8.00;;;128.10;2252.80;;;;;;5010332;28;20067;-63
2023/03/16 04:31:03;;;;;;;17.50;8.60;;;128.10;2252.80;;;;;;5010350;28;20388;-59
2023/03/16 04:33:29;;;;;;;14.70;8.60;;;128.00;2252.80;;;;;;5010109;28;20039;-60
2023/03/16 04:35:54;;;;;;;12.85;7.47;;;103.20;2227.20;;;;;;5009951;28;20045;-59
2023/03/16 04:38:21;;;;;;;13.38;7.72;;;103.10;2227.20;;;;;;5010133;28;20419;-68
2023/03/16 04:40:46;;;;;;;15.30;8.35;;;103.00;2227.20;;;;;;5009923;28;20030;-65
2023/03/16 04:43:12;;;;;;;17.08;7.72;;;103.10;2227.20;;;;;;5010388;28;20033;-59
2023/03/16 04:45:38;;;;;;;15.45;8.93;;;103.10;2227.20;;;;;;5009315;28;20040;-61
2023/03/16 04:48:04;;;;;;;11.20;7.45;;;103.10;2227.20;;;;;;5009781;28;20171;-59
2023/03/16 04:50:30;;;;;;;12.93;7.63;;;103.10;2227.20;;;;;;5009776;28;20099;-63
2023/03/16 04:52:55;;;;;;;15.45;7.40;;;103.10;2227.20;;;;;;5009850;28;20471;-59
2023/03/16 04:55:21;;;;;;;16.80;8.55;;;103.10;2227.20;;;;;;5009886;28;20022;-69
2023/03/16 04:57:47;;;;;;;22.52;10.10;;;103.30;2227.20;;;;;;5009760;28;20041;-66
2023/03/16 05:00:18;;;;;;;11.95;8.85;;;103.00;2227.20;;;;;;5009616;28;20363;-64
2023/03/16 05:02:45;;;;;;;12.73;10.20;;;103.00;2227.20;;;;;;5009361;28;20062;-59
2023/03/16 05:05:11;;;;;;;14.68;6.90;;;103.10;2227.20;;;;;;5009524;28;20037;-59
2023/03/16 05:07:36;;;;;;;14.02;7.47;;;103.00;2227.20;;;;;;5009599;28;20045;-59
2023/03/16 05:10:02;;;;;;;13.05;8.93;;;103.00;2227.20;;;;;;5009817;28;20072;-66
2023/03/16 05:12:28;;;;;;;36.72;27.75;;;103.00;2227.20;;;;;;5010167;28;20034;-62
2023/03/16 05:14:54;;;;;;;13.30;10.32;;;103.00;2227.20;;;;;;5009323;28;20030;-62
2023/03/16 05:17:21;;;;;;;12.25;7.15;;;103.00;2227.20;;;;;;5009582;28;20120;-59
2023/03/16 05:19:47;;;;;;;13.85;7.97;;;102.90;2227.20;;;;;;5009139;28;20022;-64
2023/03/16 05:22:12;;;;;;;14.50;7.20;;;102.90;2227.20;;;;;;5009640;28;20033;-68
2023/03/16 05:24:38;;;;;;;12.98;8.35;;;103.00;2227.20;;;;;;5009378;28;20017;-65
2023/03/16 05:27:04;;;;;;;11.80;8.45;;;103.00;2227.20;;;;;;5009458;28;20030;-62
2023/03/16 05:29:33;;;;;;;13.70;8.45;;;103.10;2227.20;;;;;;5009272;28;20076;-59
2023/03/16 05:31:59;;;;;;;12.52;8.95;;;103.10;2227.20;;;;;;5009498;28;20029;-60
2023/03/16 05:34:25;;;;;;;12.07;7.20;;;103.20;2227.20;;;;;;5009107;28;20455;-59
2023/03/16 05:36:51;;;;;;;13.27;8.45;;;103.30;2227.20;;;;;;5009422;28;20060;-70
2023/03/16 05:39:16;;;;;;;12.43;8.57;;;128.00;2252.80;;;;;;5008924;28;20061;-59
2023/03/16 05:41:42;;;;;;;13.05;7.40;;;128.10;2252.80;;;;;;5009913;28;20057;-70
2023/03/16 05:44:08;;;;;;;12.60;8.13;;;128.20;2252.80;;;;;;5009206;28;20460;-59
2023/03/16 05:46:34;;;;;;;13.15;7.40;;;128.10;2252.80;;;;;;5009194;28;20080;-59
2023/03/16 05:49:00;;;;;;;16.00;8.70;;;128.30;2252.80;;;;;;5009234;28;20025;-59
2023/03/16 05:51:25;;;;;;;17.05;8.02;;;128.50;2252.80;;;;;;5009437;28;20014;-69
2023/03/16 05:53:55;;;;;;;10.43;7.18;;;128.50;2252.80;;;;;;5009198;28;20022;-70
2023/03/16 05:56:25;;;;;;;13.45;7.43;;;128.60;2252.80;;;;;;5009376;28;20524;-59
2023/03/16 05:58:52;;;;;;;13.20;6.43;;;128.70;2252.80;;;;;;5012255;28;20483;-69
2023/03/16 06:01:19;;;;;;;10.65;6.10;;;128.70;2252.80;;;;;;5013345;28;20026;-69
2023/03/16 06:03:47;;;;;;;9.85;6.10;;;153.60;2252.80;;;;;;5012543;28;20095;-58
2023/03/16 06:06:14;;;;;;;20.52;11.30;;;153.80;2252.80;;;;;;5012693;28;20030;-59
2023/03/16 06:08:40;;;;;;;15.70;7.88;;;153.80;2252.80;;;;;;5013021;28;20088;-59
2023/03/16 06:11:06;;;;;;;11.35;6.53;;;153.90;2252.80;;;;;;5013068;28;20455;-59
2023/03/16 06:13:32;;;;;;;14.88;9.52;;;154.00;2252.80;;;;;;5012623;28;20026;-59
2023/03/16 06:15:58;;;;;;;10.65;6.80;;;154.10;2252.80;;;;;;5012836;28;20029;-67
2023/03/16 06:18:23;;;;;;;18.70;7.20;;;154.20;2252.80;;;;;;5012631;28;20030;-59
2023/03/16 06:20:49;;;;;;;13.10;7.63;;;154.20;2252.80;;;;;;5013456;28;20072;-61
2023/03/16 06:23:15;;;;;;;68.05;41.40;;;154.10;2252.80;;;;;;5012658;28;20018;-69
2023/03/16 06:25:41;;;;;;;22.35;10.68;;;154.20;2252.80;;;;;;5013366;28;20056;-59
2023/03/16 06:28:07;;;;;;;48.25;28.45;;;154.20;2252.80;;;;;;5012964;28;20037;-69
2023/03/16 06:30:33;;;;;;;51.95;35.65;;;179.60;2252.80;;;;;;5012837;28;20036;-58
2023/03/16 06:32:59;;;;;;;230.25;160.38;;;179.50;2252.80;;;;;;5012338;28;20431;-60
2023/03/16 06:35:25;;;;;;;31.35;21.73;;;179.60;2252.80;;;;;;5012205;28;20018;-61
2023/03/16 06:37:51;;;;;;;14.05;7.88;;;204.80;2252.80;;;;;;5012301;28;20022;-60
2023/03/16 06:40:16;;;;;;;9.90;5.88;;;205.50;2252.80;;;;;;5012049;28;20026;-61
2023/03/16 06:42:42;;;;;;;37.63;27.02;;;230.60;2252.80;;;;;;5011961;28;20487;-61
2023/03/16 06:45:10;;;;;;;14.25;6.75;;;231.20;2252.80;;;;;;5011983;28;20354;-60
2023/03/16 06:47:36;;;;;;;14.75;10.88;;;231.20;2252.80;;;;;;5011872;28;20402;-60
2023/03/16 06:50:03;;;;;;;15.20;7.93;;;231.00;2252.80;;;;;;5011596;28;20022;-59
2023/03/16 06:52:30;;;;;;;13.25;9.85;;;256.10;2252.80;;;;;;5005571;28;20026;-60
2023/03/16 06:54:57;;;;;;;15.60;11.38;;;256.70;2252.80;;;;;;4992183;28;20105;-60
2023/03/16 06:57:23;;;;;;;18.33;12.77;;;282.10;2201.60;;;;;;4991915;28;20533;-60
2023/03/16 06:59:49;;;;;;;12.20;6.60;;;282.50;2124.80;;;;;;4992197;28;20104;-59
2023/03/16 07:02:15;;;;;;;10.13;6.72;;;307.80;2073.60;;;;;;5007646;28;20396;-61
2023/03/16 07:04:42;;;;;;;13.18;7.78;;;308.10;2048.00;;;;;;5011968;28;20041;-60
2023/03/16 07:07:08;;;;;;;10.93;5.93;;;308.10;1996.80;;;;;;5011876;28;20069;-61
2023/03/16 07:09:34;;;;;;;9.25;6.05;;;333.00;1945.60;;;;;;5010826;28;20157;-61
2023/03/16 07:11:59;;;;;;;11.65;5.82;;;333.20;1920.00;;;;;;5011698;28;20130;-61
2023/03/16 07:14:25;;;;;;;9.52;5.70;;;308.00;1971.20;;;;;;5011670;28;20025;-61
2023/03/16 07:16:51;;;;;;;12.38;6.40;;;308.10;1945.60;;;;;;5011480;28;20030;-61
2023/03/16 07:19:18;;;;;;;9.95;5.10;;;333.10;1920.00;;;;;;5011204;28;20057;-61
2023/03/16 07:21:43;;;;;;;12.52;5.75;;;307.60;1971.20;;;;;;5011553;28;20480;-60
2023/03/16 07:24:10;;;;;;;12.20;5.70;;;307.70;1945.60;;;;;;5011322;28;20037;-60
2023/03/16 07:26:36;;;;;;;8.85;5.88;;;307.20;2022.40;;;;;;5010648;28;20069;-60
2023/03/16 07:29:05;;;;;;;11.90;6.85;;;307.40;1996.80;;;;;;5011480;28;20061;-61
2023/03/16 07:31:31;;;;;;;12.35;7.70;;;332.80;1996.80;;;;;;5011311;28;20030;-62
2023/03/16 07:33:57;;;;;;;7.90;5.60;;;333.70;1868.80;;;;;;5011011;28;20387;-61
2023/03/16 07:36:23;;;;;;;15.88;8.75;;;307.70;1920.00;;;;;;5011203;28;20048;-61
2023/03/16 07:38:50;;;;;;;10.43;6.78;;;282.00;1996.80;;;;;;5011285;28;20468;-59
2023/03/16 07:41:16;;;;;;;12.95;6.82;;;281.70;2022.40;;;;;;5010907;28;20026;-61
2023/03/16 07:43:43;;;;;;;12.02;6.35;;;281.60;2022.40;;;;;;5010902;28;20155;-60
2023/03/16 07:46:12;;;;;;;9.27;6.10;;;282.10;2022.40;;;;;;5010722;28;20101;-60
2023/03/16 07:48:39;;;;;;;12.27;6.03;;;256.90;2048.00;;;;;;5010897;28;20495;-59
2023/03/16 07:51:05;;;;;;;13.73;6.72;;;281.70;2022.40;;;;;;5011005;28;20025;-61
2023/03/16 07:53:30;;;;;;;11.38;7.10;;;332.80;1945.60;;;;;;5010751;28;20026;-61
2023/03/16 07:55:56;;;;;;;16.63;9.43;;;358.90;1868.80;;;;;;5010955;28;20022;-61
2023/03/16 07:58:22;;;;;;;9.65;5.43;;;384.90;1740.80;;;;;;4993642;28;20036;-61
2023/03/16 08:00:48;;;;;;;8.88;6.22;;;410.00;1740.80;;;;;;5010853;28;20021;-61
2023/03/16 08:03:13;;;;;;;10.70;5.72;;;410.50;1664.00;;;;;;5010302;28;20064;-61
2023/03/16 08:05:39;;;;;;;13.23;7.40;;;435.40;1612.80;;;;;;5010488;28;20018;-61
2023/03/16 08:08:08;;;;;;;9.88;6.70;;;409.90;1638.40;;;;;;5010647;28;20384;-61
2023/03/16 08:10:34;;;;;;;12.35;7.07;;;384.80;1689.60;;;;;;5010388;28;20025;-61
2023/03/16 08:13:01;;;;;;;10.80;6.95;;;384.90;1689.60;;;;;;5010170;28;20168;-61
2023/03/16 08:15:26;;;;;;;17.77;9.90;;;410.00;1664.00;;;;;;5010689;28;20032;-61
2023/03/16 08:17:52;;;;;;;16.83;9.20;;;435.30;1638.40;;;;;;5010399;28;20323;-61
2023/03/16 08:20:19;;;;;;;18.05;14.00;;;435.80;1587.20;;;;;;5009232;28;20030;-61
2023/03/16 08:22:45;;;;;;;14.45;9.05;;;435.50;1612.80;;;;;;5010469;28;20026;-61
2023/03/16 08:25:13;;;;;;;10.63;6.90;;;435.50;1612.80;;;;;;5010289;28;20473;-61
2023/03/16 08:27:39;;;;;;;10.77;6.18;;;435.30;1587.20;;;;;;5010627;28;20041;-61
2023/03/16 08:30:07;;;;;;;9.25;6.10;;;460.90;1561.60;;;;;;5010095;28;20029;-62
2023/03/16 08:32:32;;;;;;;13.45;7.70;;;461.00;1561.60;;;;;;5010062;28;20030;-61
2023/03/16 08:34:59;;;;;;;12.10;6.75;;;486.40;1510.40;;;;;;5010580;28;20372;-61
2023/03/16 08:37:26;;;;;;;11.85;7.38;;;461.50;1484.80;;;;;;5010079;28;20026;-61
2023/03/16 08:39:53;;;;;;;12.82;7.95;;;461.40;1536.00;;;;;;5010005;28;20444;-59
2023/03/16 08:42:19;;;;;;;10.75;6.47;;;436.10;1510.40;;;;;;5010362;28;20368;-61
2023/03/16 08:44:49;;;;;;;13.07;8.93;;;460.90;1536.00;;;;;;5009945;28;20033;-60
2023/03/16 08:47:15;;;;;;;9.40;6.38;;;410.20;1587.20;;;;;;5009800;28;20034;-61
2023/03/16 08:49:41;;;;;;;11.00;8.00;;;384.90;1612.80;;;;;;5009906;28;20481;-60
2023/03/16 08:52:09;;;;;;;34.47;19.15;;;359.30;1689.60;;;;;;5009867;28;20029;-61
2023/03/16 08:54:35;;;;;;;77.00;46.80;;;358.70;1689.60;;;;;;5009530;28;20096;-61
2023/03/16 08:57:01;;;;;;;222.20;127.20;;;358.50;1740.80;;;;;;5009883;28;20030;-60
2023/03/16 08:59:27;;;;;;;36.17;21.25;;;333.60;1766.40;;;;;;5009687;28;20030;-61
2023/03/16 09:01:53;;;;;;;51.25;42.80;;;333.70;1766.40;;;;;;5009448;28;20022;-61
2023/03/16 09:04:20;;;;;;;305.23;249.60;;;359.00;1689.60;;;;;;5009333;28;20455;-61
2023/03/16 09:06:46;;;;;;;665.83;502.05;;;358.70;1689.60;;;;;;5009410;28;20476;-61
2023/03/16 09:09:12;;;;;;;35.33;25.50;;;333.70;1740.80;;;;;;5009777;28;20037;-60
2023/03/16 09:11:39;;;;;;;21.23;12.35;;;333.40;1766.40;;;;;;5009748;28;20045;-60
2023/03/16 09:14:05;;;;;;;26.67;20.48;;;333.30;1766.40;;;;;;5009368;28;20365;-60
2023/03/16 09:16:31;;;;;;;32.20;24.02;;;307.50;1792.00;;;;;;5009487;28;20021;-60
2023/03/16 09:18:57;;;;;;;16.83;11.77;;;307.50;1817.60;;;;;;5009289;28;20030;-60
2023/03/16 09:21:23;;;;;;;17.88;16.00;;;307.60;1817.60;;;;;;5009576;28;20032;-60
2023/03/16 09:23:49;;;;;;;14.73;8.27;;;282.40;1792.00;;;;;;5009849;28;20080;-61
2023/03/16 09:26:15;;;;;;;14.35;8.05;;;282.10;1817.60;;;;;;5009176;28;20053;-60
2023/03/16 09:28:41;;;;;;;10.75;7.22;;;281.60;1868.80;;;;;;5009464;28;20089;-60
2023/03/16 09:31:08;;;;;;;15.75;9.55;;;256.60;1868.80;;;;;;5009724;28;20038;-61
2023/03/16 09:33:34;;;;;;;16.27;11.85;;;256.30;1843.20;;;;;;5013301;28;20535;-60
2023/03/16 09:36:01;;;;;;;23.55;13.93;;;256.40;1843.20;;;;;;5013489;28;20026;-59
2023/03/16 09:38:27;;;;;;;19.08;13.77;;;256.70;1817.60;;;;;;5013428;28;20026;-60
2023/03/16 09:41:17;;;;;;;18.88;14.60;;;256.80;1868.80;;;;;;5013484;28;20014;-61
2023/03/16 09:44:17;;;;;;;20.08;12.43;;;281.80;1868.80;;;;;;4952376;29;20035;-62
2023/03/16 09:46:46;;;;;;;18.13;11.38;;;281.70;1868.80;;;;;;4952913;29;20027;-60
2023/03/16 09:49:16;;;;;;;19.17;11.35;;;256.70;1817.60;;;;;;4952872;29;20047;-60
2023/03/16 09:51:55;;;;;;;19.08;11.45;;;256.60;1817.60;;;;;;4952702;29;20544;-60
2023/03/16 09:54:31;;;;;;;14.65;8.02;;;256.90;1817.60;;;;;;4952598;29;20541;-60
2023/03/16 09:56:58;;;;;;;13.73;6.88;;;281.60;1817.60;;;;;;4952849;29;20035;-59
2023/03/16 09:59:24;;;;;;;15.38;8.25;;;256.80;1792.00;;;;;;4952667;29;20035;-60
2023/03/16 10:02:27;;;;;;;13.23;8.68;;;256.60;1817.60;;;;;;4952691;28;20055;-60
2023/03/16 10:05:06;;;;;;;36.45;20.63;;;256.30;1817.60;;;;;;4952125;29;20043;-60
2023/03/16 10:07:48;;;;;;;15.85;9.40;;;256.20;1843.20;;;;;;4952523;29;20047;-60
2023/03/16 10:10:19;;;;;;;13.80;9.57;;;256.40;1817.60;;;;;;4952069;29;20098;-61
2023/03/16 10:12:50;;;;;;;12.75;8.57;;;256.10;1817.60;;;;;;4952054;29;20027;-61
2023/03/16 10:15:19;;;;;;;24.67;15.93;;;230.90;1843.20;;;;;;4952196;29;20540;-60
2023/03/16 10:18:31;;;;;;;19.13;12.80;;;231.00;1868.80;;;;;;4952103;29;20061;-60
2023/03/16 10:20:58;;;;;;;16.75;10.95;;;231.30;1894.40;;;;;;4915635;29;20398;-59
2023/03/16 10:23:25;;;;;;;14.90;9.02;;;231.10;1894.40;;;;;;4952024;29;20555;-60
2023/03/16 10:25:53;;;;;;;14.10;8.02;;;231.30;1868.80;;;;;;4951895;29;20038;-60
2023/03/16 10:28:22;;;;;;;18.98;12.43;;;231.10;1920.00;;;;;;4951979;29;20042;-60
2023/03/16 10:30:50;;;;;;;22.48;13.95;;;231.10;1920.00;;;;;;4951896;29;20167;-60
2023/03/16 10:33:23;;;;;;;21.60;12.60;;;230.90;1945.60;;;;;;4951680;29;20071;-61
2023/03/16 10:35:54;;;;;;;17.13;11.07;;;256.00;1971.20;;;;;;4951628;29;20089;-61
2023/03/16 10:38:54;;;;;;;13.75;9.38;;;256.30;1920.00;;;;;;4952039;29;20548;-60
2023/03/16 10:41:30;;;;;;;20.67;13.65;;;256.40;1868.80;;;;;;4952051;29;20032;-60
2023/03/16 10:44:07;;;;;;;18.30;11.45;;;231.20;1894.40;;;;;;4950692;28;20598;-60
2023/03/16 10:46:46;;;;;;;11.90;9.68;;;230.90;1920.00;;;;;;4951671;29;20027;-60
2023/03/16 10:49:26;;;;;;;14.82;10.27;;;256.10;1920.00;;;;;;4951717;29;20126;-60
2023/03/16 10:51:56;;;;;;;15.43;11.00;;;256.20;1920.00;;;;;;4951578;29;20025;-60
2023/03/16 10:54:29;;;;;;;16.67;11.10;;;256.20;1945.60;;;;;;4951575;29;20050;-60
2023/03/16 10:56:56;;;;;;;18.80;9.85;;;256.00;1920.00;;;;;;4991939;28;20042;-61
2023/03/16 10:59:28;;;;;;;17.13;10.07;;;256.20;1894.40;;;;;;5012232;28;20029;-60
2023/03/16 11:01:54;;;;;;;17.00;12.60;;;256.10;1894.40;;;;;;5011711;28;20555;-60
2023/03/16 11:04:20;;;;;;;38.97;16.23;;;256.20;1920.00;;;;;;5011563;28;20412;-60
2023/03/16 11:06:54;;;;;;;27.15;15.05;;;231.10;1894.40;;;;;;5011516;28;20026;-60
2023/03/16 11:09:33;;;;;;;18.95;9.40;;;231.00;1945.60;;;;;;5011961;28;20065;-60
2023/03/16 11:12:10;;;;;;;17.30;12.43;;;231.00;1920.00;;;;;;5011741;28;20014;-60
2023/03/16 11:14:36;;;;;;;18.23;11.48;;;230.80;1945.60;;;;;;5011591;28;20033;-59
2023/03/16 11:17:11;;;;;;;15.73;8.55;;;231.30;1945.60;;;;;;5011796;28;20022;-61
2023/03/16 11:19:44;;;;;;;17.67;14.43;;;256.00;1894.40;;;;;;5011157;28;20476;-60
2023/03/16 11:22:14;;;;;;;26.95;14.93;;;256.00;1894.40;;;;;;5011911;28;20029;-60
2023/03/16 11:25:01;;;;;;;19.27;15.27;;;231.30;1920.00;;;;;;5011360;28;20018;-59
2023/03/16 11:27:46;;;;;;;17.42;13.13;;;231.10;1971.20;;;;;;5011351;28;20042;-60
2023/03/16 11:30:22;;;;;;;14.82;10.52;;;231.00;1971.20;;;;;;5011519;28;20018;-60
2023/03/16 11:32:52;;;;;;;20.88;12.57;;;230.90;1945.60;;;;;;5011315;28;20056;-60
2023/03/16 11:35:27;;;;;;;19.63;11.70;;;231.30;1920.00;;;;;;5010907;28;20038;-60
2023/03/16 11:38:14;;;;;;;11.90;9.02;;;256.10;1920.00;;;;;;5011370;28;20022;-60
2023/03/16 11:40:54;;;;;;;17.52;11.93;;;230.80;1894.40;;;;;;5011327;28;20018;-60
2023/03/16 11:43:48;;;;;;;15.90;10.10;;;231.00;1920.00;;;;;;5011186;28;20515;-60
2023/03/16 11:46:28;;;;;;;20.25;14.35;;;230.60;1920.00;;;;;;4999239;28;20072;-61
2023/03/16 11:49:05;;;;;;;21.33;13.10;;;230.40;1971.20;;;;;;5010800;28;20065;-61
2023/03/16 11:52:14;;;;;;;19.40;12.48;;;230.60;1971.20;;;;;;5011137;28;20068;-60
2023/03/16 11:55:07;;;;;;;17.30;12.48;;;230.80;1996.80;;;;;;4950641;28;20058;-60
2023/03/16 11:57:38;;;;;;;26.73;17.52;;;230.80;1971.20;;;;;;4950301;29;20211;-61
2023/03/16 12:00:24;;;;;;;14.73;8.85;;;231.10;1971.20;;;;;;4950006;29;20043;-61
2023/03/16 12:03:08;;;;;;;17.63;10.73;;;230.60;1945.60;;;;;;4950031;29;20141;-60
2023/03/16 12:05:46;;;;;;;14.57;8.98;;;230.90;1945.60;;;;;;4962969;28;20031;-60
2023/03/16 12:08:42;;;;;;;17.73;12.40;;;230.60;1945.60;;;;;;4949915;29;20039;-60
2023/03/16 12:11:23;;;;;;;20.13;13.32;;;230.50;1996.80;;;;;;4950038;29;20031;-60
2023/03/16 12:14:13;;;;;;;18.25;11.40;;;230.90;1971.20;;;;;;4950198;29;20038;-60